Terminal Aerodrome Forecast
Issued by NWS Sioux Falls, SD

Home | Current Version | Previous Version | Graphics & Text | Print | Product List | Glossary Off
Versions: 1 2 3 4 5 6 7 8 9 10 11 12 13 14 15 16 17 18 19 20 21 22

296
FTUS43 KFSD 230533
TAFHON
TAF
KHON 230533Z 2306/2406 00000KT P6SM OVC040
     FM230800 28004KT P6SM OVC020
     FM231000 29005KT P6SM OVC025
     FM231500 31007KT P6SM OVC015
     FM231900 31006KT P6SM BKN020=

USA.gov is the U.S. government's official web portal to all federal, state and local government web resources and services.